Time;durP1;ratioP1;P1;durP2;ratioP2;P2;SDS_P1;SDS_P2;PMS_P1;PMS_P2;Temp;Humidity;BMP_temperature;BMP_pressure;BME280_temperature;BME280_humidity;BME280_pressure;Samples;Min_cycle;Max_cycle;Signal;HPM_P1;HPM_P2
2023/12/22 00:01:41;;;;;;;7.28;2.00;;;;;;;7.57;87.97;100078.63;3607800;39;20055;-65
2023/12/22 00:04:07;;;;;;;10.93;2.60;;;;;;;7.52;87.94;100091.44;3606306;39;20061;-66
2023/12/22 00:06:33;;;;;;;10.05;2.25;;;;;;;7.47;88.75;100077.50;3605394;39;20055;-66
2023/12/22 00:08:58;;;;;;;12.40;1.92;;;;;;;7.43;89.20;100064.31;3604462;39;20129;-66
2023/12/22 00:11:24;;;;;;;14.40;2.72;;;;;;;7.43;88.91;100076.81;3607147;39;20391;-65
2023/12/22 00:13:50;;;;;;;15.85;2.83;;;;;;;7.44;89.61;100075.84;3605100;39;20422;-65
2023/12/22 00:16:15;;;;;;;12.32;3.03;;;;;;;7.47;88.97;100067.66;3607764;39;20151;-66
2023/12/22 00:18:41;;;;;;;11.55;2.75;;;;;;;7.51;89.13;100074.53;3604404;39;20418;-66
2023/12/22 00:21:11;;;;;;;9.20;2.00;;;;;;;7.58;89.25;100081.25;3604103;39;20070;-65
2023/12/22 00:23:37;;;;;;;9.40;2.22;;;;;;;7.61;88.71;100096.22;3603898;39;20330;-66
2023/12/22 00:26:05;;;;;;;10.80;2.58;;;;;;;7.62;88.97;100097.94;3603882;39;20062;-66
2023/12/22 00:28:31;;;;;;;16.67;2.80;;;;;;;7.60;89.38;100119.44;3604046;39;20055;-66
2023/12/22 00:30:58;;;;;;;12.43;2.83;;;;;;;7.57;88.62;100100.03;3605139;39;20133;-65
2023/12/22 00:33:25;;;;;;;9.65;2.50;;;;;;;7.50;89.84;100118.28;3604690;39;20184;-66
2023/12/22 00:35:51;;;;;;;14.95;2.55;;;;;;;7.39;89.15;100096.66;3604391;39;20155;-66
2023/12/22 00:38:17;;;;;;;14.80;2.58;;;;;;;7.53;89.43;100123.44;3605224;39;20120;-66
2023/12/22 00:40:43;;;;;;;13.85;2.85;;;;;;;7.52;89.26;100116.38;3605367;39;20055;-66
2023/12/22 00:43:08;;;;;;;8.43;2.30;;;;;;;7.54;88.86;100119.78;3606113;39;20071;-66
2023/12/22 00:45:34;;;;;;;11.45;2.67;;;;;;;7.57;88.83;100116.94;3606668;39;20058;-66
2023/12/22 00:47:59;;;;;;;14.52;2.70;;;;;;;7.59;89.13;100120.38;3606609;39;20058;-66
2023/12/22 00:50:25;;;;;;;16.58;3.08;;;;;;;7.63;88.88;100116.56;3604261;39;20073;-66
2023/12/22 00:52:50;;;;;;;11.75;2.50;;;;;;;7.67;87.53;100127.94;3604343;39;20061;-66
2023/12/22 00:55:16;;;;;;;15.75;3.00;;;;;;;7.71;86.94;100125.94;3604630;39;20314;-65
2023/12/22 00:57:42;;;;;;;14.27;2.83;;;;;;;7.12;86.13;100022.53;3604247;39;20047;-66
2023/12/22 01:00:11;;;;;;;16.92;3.10;;;;;;;7.76;86.05;100131.88;3603826;39;20071;-66
2023/12/22 01:02:38;;;;;;;12.60;2.67;;;;;;;7.77;86.50;100129.13;3604354;39;20043;-66
2023/12/22 01:05:04;;;;;;;15.20;2.60;;;;;;;7.75;86.37;100116.78;3603266;39;20057;-66
2023/12/22 01:07:30;;;;;;;17.88;3.20;;;;;;;7.76;86.52;100126.53;3603285;39;20051;-66
2023/12/22 01:09:56;;;;;;;12.98;2.78;;;;;;;7.80;85.69;100141.41;3603662;39;20077;-66
2023/12/22 01:12:21;;;;;;;11.65;2.67;;;;;;;7.88;84.67;100131.13;3605277;39;20120;-66
2023/12/22 01:14:50;;;;;;;17.35;2.75;;;;;;;7.99;82.65;100123.31;3607575;39;20279;-66
2023/12/22 01:17:16;;;;;;;11.95;2.83;;;;;;;8.10;81.27;100120.78;3606220;39;20055;-66
2023/12/22 01:19:41;;;;;;;13.02;2.35;;;;;;;8.25;79.34;100126.16;3605474;39;20418;-66
2023/12/22 01:22:07;;;;;;;9.00;2.60;;;;;;;8.33;78.75;100127.34;3605562;39;20163;-66
2023/12/22 01:24:32;;;;;;;10.02;2.67;;;;;;;8.37;77.68;100123.56;3605129;39;20066;-66
2023/12/22 01:26:58;;;;;;;14.73;2.65;;;;;;;8.37;77.40;100130.69;3605637;39;20042;-66
2023/12/22 01:29:24;;;;;;;11.48;3.00;;;;;;;8.39;77.65;100130.66;3606275;39;20055;-65
2023/12/22 01:31:49;;;;;;;17.02;2.80;;;;;;;8.39;77.40;100139.53;3606968;39;20082;-66
2023/12/22 01:34:15;;;;;;;16.52;2.90;;;;;;;8.45;77.06;100147.19;3607801;39;20047;-66
2023/12/22 01:36:41;;;;;;;12.88;2.88;;;;;;;8.46;76.92;100148.91;3607112;39;20051;-66
2023/12/22 01:39:07;;;;;;;13.90;3.60;;;;;;;8.45;76.84;100147.19;3612573;39;20067;-65
2023/12/22 01:41:32;;;;;;;16.52;3.15;;;;;;;8.50;75.75;100165.63;3607844;39;20417;-66
2023/12/22 01:43:58;;;;;;;11.57;2.10;;;;;;;8.51;75.70;100159.34;3607079;39;20061;-66
2023/12/22 01:46:24;;;;;;;12.02;2.67;;;;;;;8.51;73.70;100156.66;3605119;39;20058;-66
2023/12/22 01:48:50;;;;;;;13.05;2.60;;;;;;;8.51;73.61;100149.47;3605033;39;20058;-65
2023/12/22 01:51:17;;;;;;;12.55;2.55;;;;;;;8.52;72.58;100164.56;3608941;39;20047;-66
2023/12/22 01:53:44;;;;;;;13.07;2.45;;;;;;;8.52;72.35;100151.19;3609062;39;20375;-66
2023/12/22 01:56:10;;;;;;;13.40;2.65;;;;;;;8.52;72.36;100164.56;3608690;39;20091;-65
2023/12/22 01:58:38;;;;;;;16.25;2.80;;;;;;;8.45;72.01;100157.91;3606485;39;20107;-66
2023/12/22 02:01:04;;;;;;;13.80;2.97;;;;;;;8.54;71.73;100167.16;3607286;39;20055;-66
2023/12/22 02:03:31;;;;;;;14.13;2.90;;;;;;;8.57;71.43;100175.00;3608305;39;20064;-66
2023/12/22 02:05:57;;;;;;;14.43;2.80;;;;;;;8.62;71.80;100175.56;3605739;39;20047;-66
2023/12/22 02:08:25;;;;;;;13.45;2.47;;;;;;;8.60;71.65;100173.00;3606562;39;20083;-66
2023/12/22 02:10:51;;;;;;;17.42;3.55;;;;;;;8.70;71.93;100178.63;3607146;39;20061;-65
2023/12/22 02:13:17;;;;;;;11.82;2.65;;;;;;;8.67;72.51;100172.59;3607976;39;20315;-65
2023/12/22 02:15:44;;;;;;;12.35;2.67;;;;;;;8.65;72.29;100170.00;3607280;39;20120;-65
2023/12/22 02:18:19;;;;;;;11.23;3.28;;;;;;;8.67;71.79;100146.66;3607173;39;20039;-66
2023/12/22 02:20:45;;;;;;;10.23;2.53;;;;;;;8.67;70.79;100156.53;3607490;39;20058;-66
2023/12/22 02:23:11;;;;;;;15.85;3.15;;;;;;;8.68;70.07;100144.84;3607736;39;20055;-66
2023/12/22 02:25:36;;;;;;;11.73;2.42;;;;;;;8.67;69.10;100151.16;3606359;39;20394;-65
2023/12/22 02:28:13;;;;;;;16.60;2.75;;;;;;;8.66;69.02;100160.13;3606831;39;20063;-65
2023/12/22 02:30:56;;;;;;;14.07;3.30;;;;;;;8.68;67.35;100163.59;3606460;39;20245;-66
2023/12/22 02:33:28;;;;;;;13.90;2.87;;;;;;;8.72;68.38;100166.00;3607444;39;20051;-66
2023/12/22 02:36:03;;;;;;;14.70;2.85;;;;;;;8.74;67.11;100173.91;3607368;39;20293;-66
2023/12/22 02:38:31;;;;;;;13.57;2.65;;;;;;;8.79;67.49;100222.72;3609063;39;20039;-66
2023/12/22 02:40:57;;;;;;;11.07;2.38;;;;;;;8.70;68.60;100220.63;3606258;39;20732;-66
2023/12/22 02:43:23;;;;;;;8.35;2.15;;;;;;;8.54;70.43;100210.88;3607226;39;20052;-66
2023/12/22 02:45:52;;;;;;;11.00;2.42;;;;;;;8.34;72.49;100208.56;3605449;39;20312;-66
2023/12/22 02:48:17;;;;;;;8.95;2.17;;;;;;;8.19;75.26;100193.47;3607361;39;20075;-66
2023/12/22 02:50:43;;;;;;;13.13;2.40;;;;;;;8.06;76.61;100191.53;3608085;39;21115;-65
2023/12/22 02:53:09;;;;;;;9.73;2.28;;;;;;;7.98;77.47;100187.59;3607522;39;20047;-65
2023/12/22 02:55:35;;;;;;;13.75;2.78;;;;;;;7.89;78.32;100189.03;3606253;39;20089;-65
2023/12/22 02:58:00;;;;;;;9.13;2.30;;;;;;;7.80;78.35;100176.19;3606665;39;20059;-64
2023/12/22 03:00:26;;;;;;;15.60;3.00;;;;;;;7.75;79.06;100179.16;3606476;39;20058;-64
2023/12/22 03:02:51;;;;;;;10.77;2.78;;;;;;;7.71;78.54;100171.41;3606492;39;20118;-64
2023/12/22 03:05:17;;;;;;;11.27;2.30;;;;;;;7.67;78.97;100162.72;3608007;39;20055;-64
2023/12/22 03:07:43;;;;;;;12.93;2.53;;;;;;;7.66;79.51;100166.34;3606598;39;20067;-64
2023/12/22 03:10:08;;;;;;;11.10;2.40;;;;;;;7.66;80.21;100151.16;3607444;39;20059;-64
2023/12/22 03:12:34;;;;;;;19.70;3.00;;;;;;;7.71;81.38;100166.94;3609238;39;20047;-64
2023/12/22 03:14:59;;;;;;;14.15;3.17;;;;;;;7.74;81.03;100149.81;3608521;39;20272;-64
2023/12/22 03:17:25;;;;;;;14.02;2.53;;;;;;;7.75;82.11;100152.41;3611489;39;20054;-65
2023/12/22 03:19:51;;;;;;;11.98;2.80;;;;;;;7.76;82.37;100142.56;3610579;39;20065;-64
2023/12/22 03:22:16;;;;;;;16.23;3.13;;;;;;;7.78;82.53;100151.38;3597721;39;20035;-65
2023/12/22 03:24:42;;;;;;;10.50;2.80;;;;;;;7.78;83.10;100148.69;3609539;39;20047;-66
2023/12/22 03:27:07;;;;;;;13.70;3.13;;;;;;;7.79;83.28;100142.38;3610168;39;20051;-66
2023/12/22 03:29:33;;;;;;;13.40;2.92;;;;;;;7.81;83.86;100146.69;3607993;39;20387;-66
2023/12/22 03:31:58;;;;;;;17.40;3.45;;;;;;;7.86;83.35;100143.72;3605236;39;20061;-65
2023/12/22 03:34:24;;;;;;;13.30;2.75;;;;;;;7.80;83.89;100133.41;3604093;39;20082;-66
2023/12/22 03:36:50;;;;;;;14.40;3.00;;;;;;;7.90;83.48;100134.56;3605446;39;20053;-66
2023/12/22 03:39:16;;;;;;;18.15;2.95;;;;;;;7.71;83.80;100112.56;3607651;39;20051;-66
2023/12/22 03:41:41;;;;;;;12.10;2.45;;;;;;;7.95;83.94;100148.50;3603557;39;20054;-66
2023/12/22 03:44:07;;;;;;;12.57;2.88;;;;;;;7.99;83.75;100133.13;3606488;39;20063;-66
2023/12/22 03:46:33;;;;;;;19.52;2.70;;;;;;;7.98;83.05;100126.91;3607925;39;20091;-66
2023/12/22 03:48:58;;;;;;;13.82;3.13;;;;;;;8.24;81.81;100140.47;3604013;39;20071;-66
2023/12/22 03:51:24;;;;;;;13.05;2.85;;;;;;;8.31;81.55;100144.50;3608316;39;20296;-65
2023/12/22 03:53:49;;;;;;;9.75;2.42;;;;;;;8.37;80.81;100154.81;3606225;39;20069;-66
2023/12/22 03:56:15;;;;;;;15.40;2.63;;;;;;;8.42;80.97;100155.41;3605749;39;20055;-65
2023/12/22 03:58:41;;;;;;;11.75;2.60;;;;;;;8.46;79.98;100143.53;3606817;39;20066;-65
2023/12/22 04:01:07;;;;;;;11.95;2.83;;;;;;;8.50;79.70;100155.78;3606954;39;20406;-66
2023/12/22 04:03:33;;;;;;;10.77;2.47;;;;;;;8.54;79.86;100160.00;3605655;39;20338;-66
2023/12/22 04:06:05;;;;;;;14.05;3.05;;;;;;;8.59;79.41;100165.03;3606168;39;20058;-65
2023/12/22 04:08:30;;;;;;;10.57;2.65;;;;;;;8.64;78.24;100162.06;3605401;39;20055;-66
2023/12/22 04:10:56;;;;;;;13.02;2.60;;;;;;;8.68;78.08;100179.66;3606602;39;20453;-66
2023/12/22 04:13:22;;;;;;;15.27;2.75;;;;;;;8.74;77.73;100168.56;3604803;39;20421;-66
2023/12/22 04:15:47;;;;;;;16.35;3.03;;;;;;;8.79;78.18;100177.16;3605317;39;20066;-66
2023/12/22 04:18:13;;;;;;;16.80;3.00;;;;;;;8.84;77.55;100180.38;3605767;39;20043;-66
2023/12/22 04:20:38;;;;;;;13.88;2.88;;;;;;;8.87;78.07;100180.19;3603842;39;20403;-66
2023/12/22 04:23:04;;;;;;;11.23;2.95;;;;;;;8.90;77.89;100184.50;3604944;39;20059;-66
2023/12/22 04:25:30;;;;;;;12.32;2.70;;;;;;;8.93;78.08;100185.16;3604149;39;20069;-66
2023/12/22 04:27:56;;;;;;;10.68;2.58;;;;;;;8.95;77.97;100172.53;3609246;39;20295;-66
2023/12/22 04:30:21;;;;;;;11.25;2.22;;;;;;;8.88;76.44;100175.69;3605613;39;20065;-66
2023/12/22 04:32:47;;;;;;;13.05;2.58;;;;;;;9.04;76.00;100195.19;3606350;39;20404;-66
2023/12/22 04:35:12;;;;;;;19.05;3.90;;;;;;;9.00;75.32;100185.63;3604464;39;20063;-65
2023/12/22 04:37:38;;;;;;;9.85;2.33;;;;;;;9.07;74.32;100195.84;3604814;39;20048;-66
2023/12/22 04:40:04;;;;;;;13.55;2.90;;;;;;;9.10;73.70;100196.59;3605402;39;20653;-66
2023/12/22 04:42:30;;;;;;;12.10;2.85;;;;;;;9.13;73.52;100202.59;3606433;39;20332;-64
2023/12/22 04:44:55;;;;;;;8.80;2.05;;;;;;;9.17;72.24;100205.97;3603960;39;20054;-65
2023/12/22 04:47:21;;;;;;;13.25;2.58;;;;;;;9.16;72.67;100197.03;3607000;39;20051;-65
2023/12/22 04:49:46;;;;;;;14.60;3.03;;;;;;;8.58;71.91;100105.25;3607506;39;20047;-65
2023/12/22 04:52:13;;;;;;;10.25;2.33;;;;;;;9.16;72.60;100198.88;3606959;39;20059;-64
2023/12/22 04:54:38;;;;;;;12.82;2.75;;;;;;;9.17;73.14;100195.25;3608385;39;20054;-65
2023/12/22 04:57:04;;;;;;;10.30;2.50;;;;;;;9.16;72.97;100196.19;3606587;39;20310;-64
2023/12/22 04:59:30;;;;;;;16.00;2.80;;;;;;;9.15;73.88;100191.78;3607712;39;20043;-62
2023/12/22 05:01:56;;;;;;;11.73;2.35;;;;;;;9.18;73.95;100200.50;3607461;39;20277;-64
2023/12/22 05:04:21;;;;;;;12.85;2.50;;;;;;;9.17;74.23;100200.59;3607588;39;20388;-62
2023/12/22 05:06:48;;;;;;;14.50;3.50;;;;;;;9.22;74.88;100212.72;3606280;39;20257;-64
2023/12/22 05:09:15;;;;;;;13.00;2.50;;;;;;;9.24;74.90;100215.31;3605814;39;20055;-66
2023/12/22 05:11:41;;;;;;;13.35;3.20;;;;;;;9.27;75.18;100215.13;3606818;39;20059;-64
2023/12/22 05:14:06;;;;;;;14.18;2.75;;;;;;;9.22;75.43;100217.22;3605670;39;20067;-66
2023/12/22 05:16:32;;;;;;;18.45;3.45;;;;;;;9.29;76.81;100207.81;3608083;39;20055;-64
2023/12/22 05:18:58;;;;;;;15.10;3.35;;;;;;;9.15;79.00;100186.44;3602892;39;20055;-64
2023/12/22 05:21:24;;;;;;;18.48;3.50;;;;;;;9.20;80.24;100182.50;3608658;39;20124;-64
2023/12/22 05:23:50;;;;;;;17.05;3.50;;;;;;;9.22;81.03;100207.38;3608598;39;20094;-63
2023/12/22 05:26:22;;;;;;;13.52;3.00;;;;;;;9.25;81.70;100207.16;3610421;39;20058;-63
2023/12/22 05:28:51;;;;;;;22.33;4.47;;;;;;;9.30;82.21;100220.28;3606345;39;20388;-63
2023/12/22 05:31:17;;;;;;;19.33;3.78;;;;;;;9.34;82.05;100221.78;3607448;39;20044;-63
2023/12/22 05:33:43;;;;;;;19.95;4.28;;;;;;;9.35;81.83;100217.28;3611570;39;20054;-62
2023/12/22 05:36:09;;;;;;;21.17;4.07;;;;;;;9.38;81.63;100217.09;3608325;39;20074;-62
2023/12/22 05:38:40;;;;;;;18.50;3.88;;;;;;;9.36;82.16;100209.16;3608102;39;20366;-63
2023/12/22 05:41:06;;;;;;;15.50;2.92;;;;;;;9.29;82.10;100208.69;3606028;39;20396;-63
2023/12/22 05:43:35;;;;;;;20.30;4.45;;;;;;;9.22;81.66;100195.78;3608172;39;20047;-63
2023/12/22 05:46:01;;;;;;;20.73;3.95;;;;;;;9.26;82.82;100213.38;3606025;39;20059;-63
2023/12/22 05:48:27;;;;;;;21.35;4.18;;;;;;;9.24;84.49;100200.09;3607214;39;20060;-63
2023/12/22 05:50:55;;;;;;;24.00;4.75;;;;;;;9.19;85.94;100191.47;3606569;39;20098;-63
2023/12/22 05:53:21;;;;;;;19.38;4.35;;;;;;;9.18;86.57;100205.00;3607673;39;20051;-63
2023/12/22 05:55:47;;;;;;;19.13;4.18;;;;;;;9.16;86.90;100215.81;3607314;39;20401;-62
2023/12/22 05:58:12;;;;;;;19.92;4.35;;;;;;;9.15;86.38;100205.19;3607720;39;20059;-63
2023/12/22 06:00:38;;;;;;;20.63;4.22;;;;;;;9.12;86.91;100200.03;3608959;39;20445;-63
2023/12/22 06:03:04;;;;;;;20.45;4.10;;;;;;;9.09;87.98;100193.06;3609014;39;20066;-63
2023/12/22 06:05:30;;;;;;;20.38;4.70;;;;;;;9.09;88.04;100185.00;3606877;39;20132;-63
2023/12/22 06:07:55;;;;;;;22.33;4.90;;;;;;;9.08;87.43;100199.38;3606247;39;20058;-64
2023/12/22 06:10:21;;;;;;;20.88;4.32;;;;;;;9.10;86.80;100201.94;3605558;39;20096;-63
2023/12/22 06:12:46;;;;;;;17.65;3.92;;;;;;;9.10;86.51;100183.19;3607407;39;20046;-63
2023/12/22 06:15:12;;;;;;;18.08;4.45;;;;;;;9.04;86.17;100174.59;3606485;39;20388;-63
2023/12/22 06:17:38;;;;;;;24.13;4.90;;;;;;;9.14;86.04;100187.41;3607886;39;20055;-63
2023/12/22 06:20:04;;;;;;;28.13;4.95;;;;;;;9.18;85.35;100194.28;3610993;39;20051;-63
2023/12/22 06:22:29;;;;;;;20.27;4.68;;;;;;;9.21;84.94;100188.72;3609693;39;20042;-63
2023/12/22 06:24:55;;;;;;;29.13;5.80;;;;;;;9.25;84.15;100184.84;3607671;39;20062;-63
2023/12/22 06:27:20;;;;;;;25.52;4.72;;;;;;;9.28;83.87;100184.66;3607382;39;20067;-63
2023/12/22 06:29:46;;;;;;;24.73;5.32;;;;;;;9.32;82.62;100196.03;3608936;39;20379;-64
2023/12/22 06:32:12;;;;;;;22.42;5.18;;;;;;;9.35;83.18;100182.41;3607607;39;20067;-63
2023/12/22 06:34:37;;;;;;;24.40;4.75;;;;;;;9.39;82.39;100189.31;3609354;39;20057;-64
2023/12/22 06:37:03;;;;;;;25.85;4.75;;;;;;;9.40;81.63;100189.19;3606246;39;20181;-63
2023/12/22 06:39:29;;;;;;;24.48;4.82;;;;;;;9.40;81.17;100189.19;3608099;39;20095;-64
2023/12/22 06:41:54;;;;;;;24.88;5.53;;;;;;;9.49;81.65;100210.03;3607496;39;20070;-63
2023/12/22 06:44:20;;;;;;;27.33;5.28;;;;;;;9.51;81.06;100224.22;3606021;39;20051;-63
2023/12/22 06:46:45;;;;;;;23.95;6.20;;;;;;;9.52;81.54;100225.94;3608441;39;20054;-63
2023/12/22 06:49:11;;;;;;;25.08;5.28;;;;;;;9.53;81.88;100219.59;3608089;39;20059;-63
2023/12/22 06:51:37;;;;;;;23.70;5.80;;;;;;;9.59;81.70;100212.09;3607593;39;20311;-63
2023/12/22 06:54:07;;;;;;;27.50;6.05;;;;;;;9.60;81.65;100221.88;3609720;39;20065;-63
2023/12/22 06:56:35;;;;;;;27.42;5.68;;;;;;;9.59;81.70;100210.28;3607702;39;20047;-63
2023/12/22 06:59:02;;;;;;;28.30;6.10;;;;;;;9.61;81.83;100211.03;3607457;39;20379;-63
2023/12/22 07:01:33;;;;;;;25.77;6.07;;;;;;;9.57;82.13;100200.59;3605946;39;20056;-64
2023/12/22 07:04:02;;;;;;;29.35;5.90;;;;;;;9.63;81.94;100213.59;3607094;39;20318;-63
2023/12/22 07:06:31;;;;;;;27.60;6.22;;;;;;;9.62;82.32;100214.59;3610496;39;20051;-63
2023/12/22 07:09:12;;;;;;;25.65;5.55;;;;;;;9.63;82.28;100211.78;3600455;39;20304;-63
2023/12/22 07:11:44;;;;;;;29.00;5.97;;;;;;;9.65;81.66;100212.56;3604579;39;20051;-64
2023/12/22 07:14:10;;;;;;;20.67;4.70;;;;;;;9.59;81.92;100201.38;3607790;39;20163;-63
2023/12/22 07:16:36;;;;;;;22.55;5.30;;;;;;;9.71;80.90;100203.22;3608282;39;20067;-63
2023/12/22 07:19:03;;;;;;;27.77;6.15;;;;;;;9.70;80.67;100196.13;3605415;39;20055;-63
2023/12/22 07:21:29;;;;;;;25.42;5.30;;;;;;;9.75;80.37;100208.28;3608733;39;20108;-63
2023/12/22 07:23:54;;;;;;;26.10;5.38;;;;;;;9.79;80.19;100216.97;3606146;39;20070;-63
2023/12/22 07:26:24;;;;;;;27.35;5.40;;;;;;;9.81;80.67;100198.94;3609954;39;20050;-63
2023/12/22 07:28:50;;;;;;;22.60;5.65;;;;;;;9.70;80.54;100175.50;3607819;39;20039;-63
2023/12/22 07:31:16;;;;;;;27.77;5.47;;;;;;;9.85;80.79;100194.22;3610332;39;20055;-63
2023/12/22 07:33:41;;;;;;;27.48;5.55;;;;;;;9.86;80.11;100194.09;3609062;39;20046;-64
2023/12/22 07:36:07;;;;;;;23.20;5.43;;;;;;;9.87;80.42;100193.16;3607044;39;20054;-64
2023/12/22 07:38:33;;;;;;;24.88;5.50;;;;;;;9.89;80.46;100199.25;3608766;39;20387;-63
2023/12/22 07:40:59;;;;;;;25.55;5.88;;;;;;;9.75;80.03;100169.84;3608030;39;20349;-63
2023/12/22 07:43:25;;;;;;;19.17;4.78;;;;;;;9.93;80.59;100203.47;3608801;39;20131;-63
2023/12/22 07:45:51;;;;;;;20.92;4.47;;;;;;;9.76;80.36;100168.88;3607470;39;20061;-63
2023/12/22 07:48:17;;;;;;;21.25;4.90;;;;;;;9.94;79.75;100194.44;3605119;39;20327;-64
2023/12/22 07:50:44;;;;;;;24.23;5.03;;;;;;;9.95;80.47;100196.16;3608869;39;20059;-63
2023/12/22 07:53:10;;;;;;;21.60;5.60;;;;;;;9.88;80.54;100183.28;3604755;39;20139;-63
2023/12/22 07:55:38;;;;;;;20.70;4.95;;;;;;;9.97;81.04;100196.91;3607755;39;20055;-63
2023/12/22 07:58:04;;;;;;;23.98;5.18;;;;;;;9.98;81.06;100197.75;3608269;39;20081;-63
2023/12/22 08:00:30;;;;;;;24.77;5.85;;;;;;;10.00;80.66;100195.84;3612098;39;20051;-64
2023/12/22 08:02:56;;;;;;;21.85;4.65;;;;;;;10.00;81.55;100194.03;3606488;39;20280;-63
2023/12/22 08:05:21;;;;;;;20.05;4.15;;;;;;;10.03;81.10;100198.31;3606699;39;20050;-64
2023/12/22 08:07:47;;;;;;;19.17;4.40;;;;;;;10.03;81.30;100198.31;3609194;39;20070;-63
2023/12/22 08:10:12;;;;;;;24.00;4.95;;;;;;;10.07;81.17;100198.97;3605895;39;20172;-63
2023/12/22 08:12:38;;;;;;;16.35;4.03;;;;;;;10.09;81.45;100202.41;3606220;39;20062;-64
2023/12/22 08:15:05;;;;;;;20.60;4.00;;;;;;;10.09;81.52;100210.47;3607009;39;20058;-63
2023/12/22 08:17:31;;;;;;;27.23;4.68;;;;;;;10.11;82.17;100205.81;3607077;39;20050;-63
2023/12/22 08:19:56;;;;;;;18.55;4.10;;;;;;;10.12;81.62;100191.47;3607840;39;20116;-63
2023/12/22 08:22:22;;;;;;;17.48;4.07;;;;;;;10.11;81.87;100204.00;3605585;39;20051;-63
2023/12/22 08:24:49;;;;;;;14.07;3.38;;;;;;;10.14;82.46;100194.88;3606163;39;20051;-63
2023/12/22 08:27:15;;;;;;;15.35;3.55;;;;;;;10.16;82.70;100198.31;3605385;39;20100;-63
2023/12/22 08:29:40;;;;;;;15.35;3.17;;;;;;;10.18;82.55;100194.56;3605987;39;20404;-64
2023/12/22 08:32:06;;;;;;;15.80;3.15;;;;;;;10.18;82.12;100194.56;3605109;39;20047;-63
2023/12/22 08:34:32;;;;;;;14.32;3.40;;;;;;;10.18;83.29;100197.25;3607639;39;20073;-63
2023/12/22 08:36:57;;;;;;;12.30;3.13;;;;;;;10.14;83.24;100190.34;3606679;39;20302;-63
2023/12/22 08:39:26;;;;;;;18.83;3.13;;;;;;;10.16;84.48;100209.91;3605961;39;20066;-63
2023/12/22 08:41:53;;;;;;;11.18;2.88;;;;;;;10.16;85.02;100198.31;3607350;39;20044;-63
2023/12/22 08:44:19;;;;;;;17.52;4.40;;;;;;;10.17;84.49;100194.66;3606846;39;20051;-63
2023/12/22 08:46:44;;;;;;;13.88;4.07;;;;;;;10.18;84.84;100188.31;3605755;39;20066;-64
2023/12/22 08:49:11;;;;;;;19.15;5.68;;;;;;;10.15;85.12;100183.19;3606237;39;20066;-64
2023/12/22 08:51:36;;;;;;;16.00;6.15;;;;;;;10.18;84.87;100183.81;3606773;39;20048;-65
2023/12/22 08:54:04;;;;;;;15.45;4.65;;;;;;;10.20;85.04;100194.44;3600700;39;20069;-65
2023/12/22 08:56:30;;;;;;;10.63;2.67;;;;;;;10.18;85.40;100191.00;3606941;39;20368;-65
2023/12/22 08:58:58;;;;;;;10.27;2.72;;;;;;;10.10;86.88;100188.00;3606983;39;20093;-65
2023/12/22 09:01:24;;;;;;;10.32;2.25;;;;;;;10.07;87.90;100183.72;3604767;39;20134;-65
2023/12/22 09:03:50;;;;;;;6.45;1.90;;;;;;;10.03;89.31;100175.97;3604834;39;20094;-65
2023/12/22 09:06:18;;;;;;;9.50;2.33;;;;;;;10.04;89.52;100183.91;3608032;39;20055;-65
2023/12/22 09:08:44;;;;;;;7.22;1.98;;;;;;;9.99;90.55;100169.97;3609549;39;20292;-65
2023/12/22 09:11:13;;;;;;;7.65;1.83;;;;;;;10.06;91.12;100181.13;3605776;39;20093;-63
2023/12/22 09:13:41;;;;;;;8.85;2.30;;;;;;;10.08;91.19;100173.81;3606737;39;20077;-63
2023/12/22 09:16:08;;;;;;;7.22;2.15;;;;;;;10.07;91.93;100177.47;3606871;39;20379;-63
2023/12/22 09:18:34;;;;;;;8.50;2.08;;;;;;;10.11;91.60;100178.97;3609179;39;20058;-63
2023/12/22 09:21:00;;;;;;;5.65;1.55;;;;;;;10.12;92.15;100186.09;3606879;39;20377;-63
2023/12/22 09:23:26;;;;;;;5.25;1.80;;;;;;;10.12;92.15;100184.25;3610637;39;20082;-63
2023/12/22 09:25:52;;;;;;;7.68;1.70;;;;;;;10.17;92.76;100197.34;3609929;39;20434;-65
2023/12/22 09:28:17;;;;;;;3.85;1.08;;;;;;;10.22;92.79;100192.53;3604279;39;20333;-65
2023/12/22 09:30:43;;;;;;;4.90;1.35;;;;;;;10.25;91.69;100176.19;3604628;39;20055;-64
2023/12/22 09:33:10;;;;;;;7.05;1.50;;;;;;;10.30;91.71;100179.41;3603947;39;20051;-65
2023/12/22 09:35:36;;;;;;;3.65;1.02;;;;;;;10.34;91.51;100180.94;3606345;39;20058;-65
2023/12/22 09:38:03;;;;;;;5.22;1.17;;;;;;;10.33;91.65;100155.03;3607195;39;20054;-64
2023/12/22 09:40:30;;;;;;;3.53;1.13;;;;;;;10.48;91.23;100160.28;3608698;39;20395;-64
2023/12/22 09:42:58;;;;;;;3.28;1.70;;;;;;;10.51;90.99;100157.38;3607181;39;20042;-65
2023/12/22 09:45:24;;;;;;;5.88;1.40;;;;;;;10.53;90.90;100155.41;3608095;39;20466;-65
2023/12/22 09:47:52;;;;;;;3.65;1.00;;;;;;;10.57;90.39;100143.50;3608900;39;20050;-65
2023/12/22 09:50:19;;;;;;;5.45;1.10;;;;;;;10.64;90.68;100160.88;3605864;39;20075;-65
2023/12/22 09:52:45;;;;;;;2.55;0.90;;;;;;;10.65;90.48;100163.44;3609364;39;20058;-65
2023/12/22 09:55:13;;;;;;;4.18;1.13;;;;;;;10.62;89.97;100144.00;3607822;39;20280;-64
2023/12/22 09:57:40;;;;;;;5.97;1.50;;;;;;;10.66;90.24;100164.31;3609310;39;20303;-64
2023/12/22 10:00:12;;;;;;;5.53;1.67;;;;;;;10.66;90.39;100157.13;3605890;39;20087;-64
2023/12/22 10:02:39;;;;;;;4.22;1.33;;;;;;;10.68;90.99;100168.59;3610135;39;20047;-65
2023/12/22 10:05:05;;;;;;;4.20;1.20;;;;;;;10.73;90.64;100148.59;3607964;39;20047;-64
2023/12/22 10:07:33;;;;;;;8.52;1.73;;;;;;;10.77;90.11;100150.94;3609258;39;20051;-64
2023/12/22 10:10:00;;;;;;;3.60;1.50;;;;;;;10.84;89.93;100145.97;3610305;39;20436;-65
2023/12/22 10:12:30;;;;;;;4.80;1.45;;;;;;;10.86;89.02;100139.50;3606615;39;20128;-65
2023/12/22 10:14:58;;;;;;;3.47;1.30;;;;;;;11.01;88.28;100152.81;3610400;39;20055;-65
2023/12/22 10:17:25;;;;;;;5.25;1.25;;;;;;;11.04;87.54;100150.75;3608796;39;20048;-65
2023/12/22 10:19:50;;;;;;;4.95;1.40;;;;;;;11.15;86.42;100155.31;3607581;39;20110;-65
2023/12/22 10:22:17;;;;;;;5.28;1.58;;;;;;;11.19;86.15;100155.94;3607985;39;20066;-64
2023/12/22 10:24:50;;;;;;;4.45;1.13;;;;;;;11.20;86.64;100157.66;3610615;39;20050;-64
2023/12/22 10:27:22;;;;;;;5.95;1.33;;;;;;;11.22;86.33;100166.47;3608724;39;20046;-65
2023/12/22 10:29:54;;;;;;;6.45;1.40;;;;;;;11.23;86.51;100163.69;3609682;39;20047;-64
2023/12/22 10:32:21;;;;;;;3.60;1.35;;;;;;;11.24;86.51;100161.84;3609032;39;20069;-65
2023/12/22 10:34:48;;;;;;;4.70;1.40;;;;;;;11.26;85.81;100147.31;3610483;39;20046;-65
2023/12/22 10:37:15;;;;;;;3.22;1.15;;;;;;;11.26;85.61;100147.31;3607543;39;20051;-65
2023/12/22 10:39:41;;;;;;;6.15;1.27;;;;;;;11.28;85.78;100166.84;3609552;39;20077;-65
2023/12/22 10:42:07;;;;;;;5.45;1.40;;;;;;;11.28;85.50;100172.25;3609173;39;20467;-65
2023/12/22 10:44:33;;;;;;;6.82;1.63;;;;;;;11.25;85.35;100150.94;3608118;39;20063;-65
2023/12/22 10:47:01;;;;;;;7.05;1.50;;;;;;;11.32;85.02;100164.78;3610082;39;20143;-65
2023/12/22 10:49:26;;;;;;;2.72;1.30;;;;;;;11.35;83.57;100162.75;3609554;39;20116;-65
2023/12/22 10:51:53;;;;;;;3.03;1.35;;;;;;;11.38;83.46;100162.53;3611154;39;20051;-65
2023/12/22 10:54:19;;;;;;;4.63;1.33;;;;;;;11.41;83.22;100168.63;3608416;39;20845;-65
2023/12/22 10:56:45;;;;;;;6.50;1.38;;;;;;;11.37;82.62;100147.31;3608153;39;20314;-65
2023/12/22 10:59:11;;;;;;;4.32;1.08;;;;;;;11.49;82.20;100168.91;3609179;39;20062;-65
2023/12/22 11:01:38;;;;;;;3.38;0.90;;;;;;;11.51;82.19;100172.31;3611309;39;20059;-65
2023/12/22 11:04:19;;;;;;;6.93;1.35;;;;;;;11.52;81.80;100168.69;3608667;39;20051;-65
2023/12/22 11:06:49;;;;;;;3.85;0.98;;;;;;;10.84;81.65;100047.34;3609752;39;20054;-65
2023/12/22 11:09:22;;;;;;;3.55;0.93;;;;;;;11.57;81.67;100172.72;3606525;39;20047;-65
2023/12/22 11:11:49;;;;;;;6.43;1.52;;;;;;;11.57;82.35;100159.25;3609920;39;20050;-65
2023/12/22 11:14:17;;;;;;;4.57;1.33;;;;;;;11.60;81.51;100155.47;3609545;39;20058;-65
2023/12/22 11:16:48;;;;;;;5.75;1.27;;;;;;;11.63;80.84;100157.94;3609914;39;20045;-64
2023/12/22 11:19:15;;;;;;;6.43;1.50;;;;;;;11.59;80.81;100143.00;3606899;39;20089;-64
2023/12/22 11:21:43;;;;;;;4.40;1.13;;;;;;;11.66;80.77;100160.38;3608191;39;20340;-65